Sao Jose do Campestre, Brazil
Current Conditions -  °F | °C
As of 8:00 AM on Saturday 25 Oct 2014 (Local Time) from SBNT Reporting Station
Scattered Clouds Scattered Clouds  
Wind Chill: 81°   Ceiling: Unl
Heat Index: 84°   Visibility: 6mi
Dew Point: 70°   Wind: 17mph
Humidity: 70%   Direction: 120°ESE
Pressure: 29.94"   Gusts: NA
Location:  6.32°S, 35.71°W
Report Text: SBNT 251100Z 12015KT 9999 SCT021 FEW030TCU SCT070 27/21 Q1014
Loading
Personal Weather Stations






























Interactive Weather Map
Tropical Storm Tracking
New forecast layout! Learn more

10-Day Weather Forecast

Advertisements
Track Severe Weather on mobile